Time;durP1;ratioP1;P1;durP2;ratioP2;P2;SDS_P1;SDS_P2;PMS_P1;PMS_P2;Temp;Humidity;BMP_temperature;BMP_pressure;BME280_temperature;BME280_humidity;BME280_pressure;Samples;Min_cycle;Max_cycle;Signal;HPM_P1;HPM_P2
2021/01/25 00:02:15;;;;;;;9.90;5.95;;;;;;;;;;5082349;28;20132;-84
2021/01/25 00:04:41;;;;;;;10.65;6.63;;;;;;;;;;5082335;28;20038;-83
2021/01/25 00:07:07;;;;;;;8.07;6.53;;;;;;;;;;5090821;28;20117;-83
2021/01/25 00:09:33;;;;;;;8.85;6.38;;;;;;;;;;5079196;28;20085;-83
2021/01/25 00:11:59;;;;;;;11.82;7.03;;;;;;;;;;5097105;28;20040;-84
2021/01/25 00:14:25;;;;;;;8.23;6.35;;;;;;;;;;5079383;28;20028;-83
2021/01/25 00:16:52;;;;;;;9.27;6.68;;;;;;;;;;5079178;28;20035;-83
2021/01/25 00:19:18;;;;;;;11.95;7.47;;;;;;;;;;5078743;28;20351;-83
2021/01/25 00:21:44;;;;;;;9.38;6.75;;;;;;;;;;5078794;28;20032;-84
2021/01/25 00:24:10;;;;;;;8.30;5.97;;;;;;;;;;5095945;28;20020;-83
2021/01/25 00:26:36;;;;;;;10.98;6.22;;;;;;;;;;5078009;28;20061;-84
2021/01/25 00:29:02;;;;;;;10.00;7.40;;;;;;;;;;5078403;28;20423;-84
2021/01/25 00:31:28;;;;;;;10.43;6.43;;;;;;;;;;5078925;28;20047;-83
2021/01/25 00:33:55;;;;;;;8.05;6.15;;;;;;;;;;5078941;28;20111;-84
2021/01/25 00:36:21;;;;;;;8.48;5.57;;;;;;;;;;5078602;28;20051;-83
2021/01/25 00:38:47;;;;;;;9.43;5.93;;;;;;;;;;5078448;28;20073;-83
2021/01/25 00:41:13;;;;;;;9.60;5.80;;;;;;;;;;5096204;28;20081;-84
2021/01/25 00:43:39;;;;;;;11.70;6.43;;;;;;;;;;5079043;28;20028;-83
2021/01/25 00:46:05;;;;;;;13.82;6.20;;;;;;;;;;5078232;28;20451;-83
2021/01/25 00:48:31;;;;;;;13.00;6.22;;;;;;;;;;5078653;28;20039;-83
2021/01/25 00:50:57;;;;;;;9.88;6.40;;;;;;;;;;5078538;28;20336;-83
2021/01/25 00:53:24;;;;;;;8.65;6.22;;;;;;;;;;5093860;28;20115;-83
2021/01/25 00:55:50;;;;;;;8.68;6.13;;;;;;;;;;5077232;28;20039;-82
2021/01/25 00:58:16;;;;;;;10.80;6.43;;;;;;;;;;5057297;28;20035;-85
2021/01/25 01:00:42;;;;;;;9.52;6.40;;;;;;;;;;5075609;28;20071;-83
2021/01/25 01:03:08;;;;;;;9.38;5.28;;;;;;;;;;5056533;28;20247;-83
2021/01/25 01:05:34;;;;;;;9.63;5.63;;;;;;;;;;5077074;28;20094;-84
2021/01/25 01:08:02;;;;;;;10.98;6.15;;;;;;;;;;5068388;28;20123;-83
2021/01/25 01:10:28;;;;;;;7.90;5.88;;;;;;;;;;5080763;28;20036;-83
2021/01/25 01:12:54;;;;;;;12.43;6.45;;;;;;;;;;5080632;28;20051;-82
2021/01/25 01:15:20;;;;;;;8.75;6.70;;;;;;;;;;5080850;28;20135;-84
2021/01/25 01:17:46;;;;;;;8.73;6.43;;;;;;;;;;5077146;28;20032;-84
2021/01/25 01:20:13;;;;;;;8.25;5.97;;;;;;;;;;5085435;28;20020;-83
2021/01/25 01:22:39;;;;;;;9.45;6.30;;;;;;;;;;5101307;28;20063;-83
2021/01/25 01:25:06;;;;;;;8.27;6.30;;;;;;;;;;5118458;28;20423;-84
2021/01/25 01:27:32;;;;;;;8.55;6.38;;;;;;;;;;5119238;28;20067;-84
2021/01/25 01:29:59;;;;;;;15.45;7.35;;;;;;;;;;5103099;28;20024;-84
2021/01/25 01:32:25;;;;;;;7.72;6.03;;;;;;;;;;5080406;28;20039;-82
2021/01/25 01:34:51;;;;;;;9.65;6.32;;;;;;;;;;5098319;28;20020;-84
2021/01/25 01:37:17;;;;;;;9.52;6.05;;;;;;;;;;5081077;28;20028;-83
2021/01/25 01:39:43;;;;;;;10.10;5.75;;;;;;;;;;5080676;28;20040;-83
2021/01/25 01:42:14;;;;;;;10.43;6.05;;;;;;;;;;5095248;28;20097;-84
2021/01/25 01:44:40;;;;;;;9.40;6.43;;;;;;;;;;5079556;28;20178;-84
2021/01/25 01:47:07;;;;;;;9.40;5.47;;;;;;;;;;5080050;28;20039;-83
2021/01/25 01:49:34;;;;;;;11.82;5.88;;;;;;;;;;5079558;28;20031;-83
2021/01/25 01:52:00;;;;;;;7.97;5.45;;;;;;;;;;5098035;28;20082;-83
2021/01/25 01:54:26;;;;;;;8.98;5.78;;;;;;;;;;5079978;28;20420;-83
2021/01/25 01:56:52;;;;;;;7.22;5.00;;;;;;;;;;5081149;28;20039;-83
2021/01/25 01:59:18;;;;;;;8.05;5.75;;;;;;;;;;5081467;28;20028;-83
2021/01/25 02:01:44;;;;;;;8.10;5.55;;;;;;;;;;5086864;28;20067;-84
2021/01/25 02:04:11;;;;;;;8.95;5.70;;;;;;;;;;5015744;28;20021;-84
2021/01/25 02:06:37;;;;;;;6.82;5.32;;;;;;;;;;5084334;28;20030;-83
2021/01/25 02:09:04;;;;;;;9.23;5.93;;;;;;;;;;5084045;28;20048;-84
2021/01/25 02:11:31;;;;;;;7.70;5.85;;;;;;;;;;5083500;28;20136;-83
2021/01/25 02:13:58;;;;;;;10.48;6.10;;;;;;;;;;5084333;28;20036;-83
2021/01/25 02:16:24;;;;;;;9.10;5.85;;;;;;;;;;5015219;28;20030;-82
2021/01/25 02:18:50;;;;;;;8.07;5.72;;;;;;;;;;5015337;28;20048;-83
2021/01/25 02:21:17;;;;;;;9.50;6.72;;;;;;;;;;5015610;28;20124;-83
2021/01/25 02:23:52;;;;;;;9.85;5.80;;;;;;;;;;5015557;28;20159;-84
2021/01/25 02:26:23;;;;;;;9.05;6.07;;;;;;;;;;5084076;28;20041;-84
2021/01/25 02:28:49;;;;;;;8.93;5.93;;;;;;;;;;5083700;28;20038;-82
2021/01/25 02:31:15;;;;;;;7.03;5.68;;;;;;;;;;5083694;28;20048;-83
2021/01/25 02:33:48;;;;;;;8.98;5.68;;;;;;;;;;5015212;28;20030;-83
2021/01/25 02:36:15;;;;;;;7.28;5.57;;;;;;;;;;5083881;28;20034;-82
2021/01/25 02:38:43;;;;;;;9.95;5.65;;;;;;;;;;5015140;28;20065;-82
2021/01/25 02:41:09;;;;;;;8.85;5.75;;;;;;;;;;5083480;28;20034;-84
2021/01/25 02:43:37;;;;;;;8.82;5.68;;;;;;;;;;5083492;28;20318;-83
2021/01/25 02:46:03;;;;;;;7.85;5.50;;;;;;;;;;5083130;28;20436;-82
2021/01/25 02:48:29;;;;;;;5.88;4.80;;;;;;;;;;5015111;28;20066;-84
2021/01/25 02:50:55;;;;;;;8.68;5.57;;;;;;;;;;5083620;28;20126;-83
2021/01/25 02:53:21;;;;;;;10.18;5.57;;;;;;;;;;5083755;28;20071;-83
2021/01/25 02:55:49;;;;;;;7.18;5.22;;;;;;;;;;5082900;28;20026;-82
2021/01/25 02:58:15;;;;;;;8.35;5.00;;;;;;;;;;5083602;28;20026;-83
2021/01/25 03:01:03;;;;;;;9.13;5.82;;;;;;;;;;5083146;28;20033;-84
2021/01/25 03:03:31;;;;;;;7.53;5.65;;;;;;;;;;5083279;28;20082;-83
2021/01/25 03:05:57;;;;;;;7.28;5.40;;;;;;;;;;5083446;28;20133;-84
2021/01/25 03:08:26;;;;;;;8.68;5.38;;;;;;;;;;5014567;28;20321;-83
2021/01/25 03:10:52;;;;;;;;;;;;;;;;;;5083003;28;20171;-82
2021/01/25 03:13:24;;;;;;;8.77;5.68;;;;;;;;;;5013763;28;20354;-83
2021/01/25 03:15:53;;;;;;;8.40;5.40;;;;;;;;;;5083605;28;20060;-83
2021/01/25 03:18:19;;;;;;;;;;;;;;;;;;5083288;28;20452;-83
2021/01/25 03:20:45;;;;;;;8.88;5.53;;;;;;;;;;5015336;28;19910;-83
2021/01/25 03:23:11;;;;;;;8.40;5.30;;;;;;;;;;5014831;28;20041;-84
2021/01/25 03:25:37;;;;;;;8.65;5.60;;;;;;;;;;5083496;28;20040;-83
2021/01/25 03:28:04;;;;;;;7.47;5.60;;;;;;;;;;5082021;28;20030;-83
2021/01/25 03:30:30;;;;;;;7.38;6.13;;;;;;;;;;5014791;28;20114;-83
2021/01/25 03:32:56;;;;;;;11.85;6.78;;;;;;;;;;5082745;28;20041;-84
2021/01/25 03:35:22;;;;;;;8.90;6.05;;;;;;;;;;5083149;28;20053;-84
2021/01/25 03:37:48;;;;;;;10.55;6.10;;;;;;;;;;5053673;28;20110;-83
2021/01/25 03:40:14;;;;;;;6.60;5.35;;;;;;;;;;5097632;28;20024;-84
2021/01/25 03:42:41;;;;;;;8.23;5.65;;;;;;;;;;5092822;28;20028;-83
2021/01/25 03:45:07;;;;;;;8.20;5.43;;;;;;;;;;5085764;28;20085;-84
2021/01/25 03:47:33;;;;;;;8.57;5.35;;;;;;;;;;5079478;28;20370;-84
2021/01/25 03:49:59;;;;;;;9.32;6.20;;;;;;;;;;5079455;28;20036;-83
2021/01/25 03:52:26;;;;;;;8.18;5.40;;;;;;;;;;5071219;28;20040;-82
2021/01/25 03:54:52;;;;;;;9.68;6.30;;;;;;;;;;5060055;28;20040;-83
2021/01/25 03:57:19;;;;;;;7.32;5.20;;;;;;;;;;5093500;28;20034;-84
2021/01/25 03:59:45;;;;;;;9.05;6.75;;;;;;;;;;5079325;28;20032;-83
2021/01/25 04:02:13;;;;;;;8.40;5.25;;;;;;;;;;5096938;28;20023;-83
2021/01/25 04:04:40;;;;;;;10.48;6.72;;;;;;;;;;5078407;28;20051;-83
2021/01/25 04:07:06;;;;;;;9.93;6.22;;;;;;;;;;5094856;28;20032;-83
2021/01/25 04:09:32;;;;;;;7.22;5.50;;;;;;;;;;5095540;28;20028;-82
2021/01/25 04:11:58;;;;;;;8.57;6.22;;;;;;;;;;5077593;28;20040;-84
2021/01/25 04:14:24;;;;;;;7.53;5.90;;;;;;;;;;5095101;28;20401;-84
2021/01/25 04:16:50;;;;;;;7.10;5.40;;;;;;;;;;5077720;28;20036;-82
2021/01/25 04:19:16;;;;;;;8.88;6.18;;;;;;;;;;5078672;28;20038;-82
2021/01/25 04:21:42;;;;;;;8.05;6.13;;;;;;;;;;5097128;28;20028;-83
2021/01/25 04:24:08;;;;;;;10.70;6.32;;;;;;;;;;5077096;28;20032;-84
2021/01/25 04:26:35;;;;;;;8.23;6.05;;;;;;;;;;5077731;28;20336;-84
2021/01/25 04:29:01;;;;;;;9.10;6.40;;;;;;;;;;5095257;28;20077;-83
2021/01/25 04:31:27;;;;;;;7.65;5.55;;;;;;;;;;5077522;28;20036;-84
2021/01/25 04:33:53;;;;;;;7.28;5.82;;;;;;;;;;5077534;28;20036;-83
2021/01/25 04:36:19;;;;;;;9.63;6.25;;;;;;;;;;5077920;28;20570;-82
2021/01/25 04:38:45;;;;;;;9.02;5.95;;;;;;;;;;5078109;28;20355;-83
2021/01/25 04:41:11;;;;;;;6.82;5.80;;;;;;;;;;5097021;28;20031;-83
2021/01/25 04:43:37;;;;;;;8.05;6.07;;;;;;;;;;5078737;28;20024;-83
2021/01/25 04:46:03;;;;;;;8.05;6.13;;;;;;;;;;5079206;28;20028;-83
2021/01/25 04:48:31;;;;;;;8.65;5.28;;;;;;;;;;5078844;28;20336;-84
2021/01/25 04:50:59;;;;;;;6.78;5.65;;;;;;;;;;5096913;28;20031;-83
2021/01/25 04:53:25;;;;;;;7.40;6.00;;;;;;;;;;5077632;28;20040;-84
2021/01/25 04:55:52;;;;;;;8.30;5.72;;;;;;;;;;5076935;28;20036;-83
2021/01/25 04:58:18;;;;;;;8.30;6.35;;;;;;;;;;5077809;28;20336;-83
2021/01/25 05:00:45;;;;;;;8.73;6.05;;;;;;;;;;5095839;28;20039;-84
2021/01/25 05:03:11;;;;;;;7.18;5.88;;;;;;;;;;5078684;28;20090;-82
2021/01/25 05:05:37;;;;;;;11.15;6.60;;;;;;;;;;5078853;28;20089;-84
2021/01/25 05:08:04;;;;;;;7.93;6.05;;;;;;;;;;5076697;28;20024;-82
2021/01/25 05:10:30;;;;;;;7.35;5.63;;;;;;;;;;5078576;28;20040;-84
2021/01/25 05:12:56;;;;;;;11.27;6.57;;;;;;;;;;5019791;28;20033;-83
2021/01/25 05:15:26;;;;;;;8.70;6.32;;;;;;;;;;5074971;28;20454;-83
2021/01/25 05:17:53;;;;;;;8.25;5.93;;;;;;;;;;5078332;28;20063;-83
2021/01/25 05:20:23;;;;;;;9.25;6.13;;;;;;;;;;5089803;28;20088;-82
2021/01/25 05:22:49;;;;;;;11.98;6.32;;;;;;;;;;5069108;28;20032;-81
2021/01/25 05:25:22;;;;;;;11.55;6.25;;;;;;;;;;5039790;28;20056;-83
2021/01/25 05:27:48;;;;;;;10.10;7.15;;;;;;;;;;5060057;28;20034;-82
2021/01/25 05:30:14;;;;;;;8.30;6.20;;;;;;;;;;5072115;28;20037;-84
2021/01/25 05:32:44;;;;;;;7.07;5.88;;;;;;;;;;5069638;28;20038;-84
2021/01/25 05:35:11;;;;;;;9.65;6.20;;;;;;;;;;5067812;28;20078;-83
2021/01/25 05:37:37;;;;;;;7.60;6.10;;;;;;;;;;5082807;28;20024;-82
2021/01/25 05:40:03;;;;;;;8.75;6.60;;;;;;;;;;5104110;28;20046;-82
2021/01/25 05:42:33;;;;;;;12.60;7.20;;;;;;;;;;5081909;28;20020;-84
2021/01/25 05:45:12;;;;;;;7.63;5.97;;;;;;;;;;5078245;28;20111;-82
2021/01/25 05:47:46;;;;;;;7.90;5.60;;;;;;;;;;5077821;28;20073;-82
2021/01/25 05:50:24;;;;;;;7.53;5.50;;;;;;;;;;5078885;28;20032;-83
2021/01/25 05:52:51;;;;;;;7.10;6.00;;;;;;;;;;5098829;28;20036;-83
2021/01/25 05:55:17;;;;;;;11.18;6.03;;;;;;;;;;5080237;28;20038;-84
2021/01/25 05:57:43;;;;;;;8.70;6.38;;;;;;;;;;5080193;28;20032;-83
2021/01/25 06:00:09;;;;;;;12.10;7.85;;;;;;;;;;5098085;28;20012;-83
2021/01/25 06:02:37;;;;;;;9.52;6.70;;;;;;;;;;5080840;28;20028;-82
2021/01/25 06:05:05;;;;;;;11.40;7.05;;;;;;;;;;5079908;28;20035;-84
2021/01/25 06:07:31;;;;;;;9.25;7.03;;;;;;;;;;5081245;28;20039;-83
2021/01/25 06:10:00;;;;;;;9.05;6.43;;;;;;;;;;5078604;28;20435;-86
2021/01/25 06:12:44;;;;;;;8.75;6.10;;;;;;;;;;5096356;28;20041;-83
2021/01/25 06:15:24;;;;;;;9.73;6.13;;;;;;;;;;5096795;28;20028;-83
2021/01/25 06:17:50;;;;;;;10.40;6.43;;;;;;;;;;5097408;28;20051;-83
2021/01/25 06:20:18;;;;;;;8.63;6.65;;;;;;;;;;5079982;28;20035;-84
2021/01/25 06:22:45;;;;;;;12.85;6.30;;;;;;;;;;5098550;28;20020;-83
2021/01/25 06:25:12;;;;;;;10.27;6.80;;;;;;;;;;5084368;28;20234;-84
2021/01/25 06:27:38;;;;;;;8.25;6.53;;;;;;;;;;5101841;28;20145;-83
2021/01/25 06:30:05;;;;;;;9.85;6.57;;;;;;;;;;5080270;28;20039;-85
2021/01/25 06:32:32;;;;;;;8.35;6.70;;;;;;;;;;5083340;28;20046;-83
2021/01/25 06:34:58;;;;;;;8.25;6.72;;;;;;;;;;5078924;28;20063;-84
2021/01/25 06:37:26;;;;;;;9.18;7.55;;;;;;;;;;5092875;28;20181;-85
2021/01/25 06:39:52;;;;;;;12.10;6.50;;;;;;;;;;5089342;28;20039;-83
2021/01/25 06:42:18;;;;;;;10.50;7.25;;;;;;;;;;5088533;28;20422;-83
2021/01/25 06:44:45;;;;;;;8.27;5.93;;;;;;;;;;5093038;28;20036;-84
2021/01/25 06:47:14;;;;;;;11.80;8.15;;;;;;;;;;5086968;28;20438;-83
2021/01/25 06:49:41;;;;;;;8.80;6.35;;;;;;;;;;5090751;28;20066;-84
2021/01/25 06:52:09;;;;;;;9.35;6.30;;;;;;;;;;5108451;28;20086;-83
2021/01/25 06:54:41;;;;;;;8.20;6.43;;;;;;;;;;5088100;28;20135;-83
2021/01/25 06:57:08;;;;;;;9.90;6.75;;;;;;;;;;5084777;28;20027;-84
2021/01/25 06:59:36;;;;;;;10.90;6.30;;;;;;;;;;5080230;28;20028;-84
2021/01/25 07:02:06;;;;;;;9.63;6.33;;;;;;;;;;5081655;28;20047;-83
2021/01/25 07:04:32;;;;;;;8.20;6.30;;;;;;;;;;5083300;28;20035;-83
2021/01/25 07:06:59;;;;;;;8.88;6.45;;;;;;;;;;5059508;28;20128;-85
2021/01/25 07:09:26;;;;;;;9.57;6.55;;;;;;;;;;5075933;28;20040;-83
2021/01/25 07:11:52;;;;;;;9.23;6.72;;;;;;;;;;5072521;28;20046;-84
2021/01/25 07:14:20;;;;;;;10.95;6.90;;;;;;;;;;5068142;28;20388;-82
2021/01/25 07:16:48;;;;;;;10.50;6.33;;;;;;;;;;5068945;28;20136;-85
2021/01/25 07:19:15;;;;;;;8.43;6.32;;;;;;;;;;5104381;28;20383;-84
2021/01/25 07:21:42;;;;;;;13.40;7.50;;;;;;;;;;5091945;28;20048;-84
2021/01/25 07:24:08;;;;;;;9.25;6.45;;;;;;;;;;5089145;28;20042;-84
2021/01/25 07:26:38;;;;;;;8.73;6.55;;;;;;;;;;5084751;28;20147;-84
2021/01/25 07:29:11;;;;;;;9.93;6.47;;;;;;;;;;5081863;28;20031;-83
2021/01/25 07:31:37;;;;;;;10.57;7.45;;;;;;;;;;5090854;28;20034;-84
2021/01/25 07:34:03;;;;;;;9.88;6.85;;;;;;;;;;5083398;28;20027;-84
2021/01/25 07:36:32;;;;;;;7.85;6.28;;;;;;;;;;5083232;28;20039;-84
2021/01/25 07:38:59;;;;;;;12.32;7.22;;;;;;;;;;5083764;28;20038;-85
2021/01/25 07:41:25;;;;;;;8.20;6.43;;;;;;;;;;5101480;28;20035;-84
2021/01/25 07:43:51;;;;;;;9.43;6.43;;;;;;;;;;5097020;28;20063;-84
2021/01/25 07:46:22;;;;;;;11.45;7.53;;;;;;;;;;5106634;28;20042;-84
2021/01/25 07:48:52;;;;;;;13.73;7.53;;;;;;;;;;5087721;28;20198;-84
2021/01/25 07:51:19;;;;;;;8.00;6.70;;;;;;;;;;5088581;28;20031;-83
2021/01/25 07:53:45;;;;;;;9.60;6.65;;;;;;;;;;5088257;28;20026;-84
2021/01/25 07:56:18;;;;;;;9.70;6.05;;;;;;;;;;5077638;28;20127;-83
2021/01/25 07:58:45;;;;;;;12.57;7.82;;;;;;;;;;5079549;28;20039;-84
2021/01/25 08:01:13;;;;;;;9.27;7.03;;;;;;;;;;5093709;28;20031;-85
2021/01/25 08:03:42;;;;;;;10.38;6.97;;;;;;;;;;5084752;28;20051;-84
2021/01/25 08:06:09;;;;;;;9.57;7.60;;;;;;;;;;5085213;28;20031;-84
2021/01/25 08:08:36;;;;;;;10.38;7.47;;;;;;;;;;5101225;28;20035;-84
2021/01/25 08:11:06;;;;;;;10.63;6.82;;;;;;;;;;5073515;28;20134;-85
2021/01/25 08:13:35;;;;;;;10.50;7.05;;;;;;;;;;5063461;28;20104;-83
2021/01/25 08:16:04;;;;;;;10.77;7.78;;;;;;;;;;5082216;28;20126;-83
2021/01/25 08:18:43;;;;;;;7.45;6.43;;;;;;;;;;5091403;28;20058;-85
2021/01/25 08:21:12;;;;;;;10.25;8.18;;;;;;;;;;5086278;28;20023;-84
2021/01/25 08:23:40;;;;;;;9.43;7.53;;;;;;;;;;5085126;28;20289;-83
2021/01/25 08:26:09;;;;;;;10.48;8.60;;;;;;;;;;5086344;28;20020;-82
2021/01/25 08:28:42;;;;;;;9.95;6.97;;;;;;;;;;5074936;28;20036;-85
2021/01/25 08:31:17;;;;;;;8.85;6.60;;;;;;;;;;5086721;28;20064;-85
2021/01/25 08:33:58;;;;;;;11.75;6.55;;;;;;;;;;5099930;28;20028;-85
2021/01/25 08:36:28;;;;;;;10.35;7.38;;;;;;;;;;5102044;28;20035;-84
2021/01/25 08:38:54;;;;;;;11.23;8.48;;;;;;;;;;5087297;28;20028;-84
2021/01/25 08:41:21;;;;;;;9.23;7.05;;;;;;;;;;5088233;28;20059;-84
2021/01/25 08:43:59;;;;;;;11.05;7.55;;;;;;;;;;5088418;28;20024;-85
2021/01/25 08:46:27;;;;;;;10.50;7.82;;;;;;;;;;5092773;28;20035;-84
2021/01/25 08:48:53;;;;;;;9.15;6.38;;;;;;;;;;5085360;28;20023;-85
2021/01/25 08:51:26;;;;;;;10.57;7.18;;;;;;;;;;5085877;28;20149;-84
2021/01/25 08:53:59;;;;;;;9.82;6.97;;;;;;;;;;5086843;28;20343;-85
2021/01/25 08:56:33;;;;;;;12.60;7.35;;;;;;;;;;5085268;28;20375;-84
2021/01/25 08:59:06;;;;;;;13.98;8.15;;;;;;;;;;5080261;28;20169;-84
2021/01/25 09:01:32;;;;;;;12.43;7.45;;;;;;;;;;5070880;28;20039;-85
2021/01/25 09:04:00;;;;;;;9.52;7.15;;;;;;;;;;5087396;28;20028;-84
2021/01/25 09:06:26;;;;;;;10.43;7.20;;;;;;;;;;5085655;28;20113;-85
2021/01/25 09:08:53;;;;;;;9.30;7.30;;;;;;;;;;5083503;28;20020;-83
2021/01/25 09:11:19;;;;;;;12.30;8.00;;;;;;;;;;5103704;28;20047;-84
2021/01/25 09:13:45;;;;;;;13.10;7.85;;;;;;;;;;5084481;28;20443;-85
2021/01/25 09:16:11;;;;;;;9.95;8.05;;;;;;;;;;5079101;28;20027;-85
2021/01/25 09:18:37;;;;;;;12.02;7.68;;;;;;;;;;5083370;28;20087;-85
2021/01/25 09:21:03;;;;;;;8.73;7.50;;;;;;;;;;5081874;28;20076;-83
2021/01/25 09:23:29;;;;;;;10.63;6.95;;;;;;;;;;5106970;28;20096;-83
2021/01/25 09:25:56;;;;;;;12.05;7.72;;;;;;;;;;5055528;28;20030;-84
2021/01/25 09:28:22;;;;;;;9.82;7.15;;;;;;;;;;5064402;28;20030;-85
2021/01/25 09:30:49;;;;;;;9.27;6.47;;;;;;;;;;5061470;28;20059;-84
2021/01/25 09:33:15;;;;;;;9.55;7.13;;;;;;;;;;5093410;28;20038;-84
2021/01/25 09:35:41;;;;;;;8.32;6.80;;;;;;;;;;5117110;28;20035;-84
2021/01/25 09:38:07;;;;;;;8.00;5.93;;;;;;;;;;5086807;28;20020;-82
2021/01/25 09:40:34;;;;;;;9.07;7.07;;;;;;;;;;5087601;28;20405;-89
2021/01/25 09:43:01;;;;;;;8.55;7.32;;;;;;;;;;5077496;28;20024;-85
2021/01/25 09:45:27;;;;;;;8.25;6.45;;;;;;;;;;5076988;28;20066;-84
2021/01/25 09:47:53;;;;;;;9.95;6.10;;;;;;;;;;5094934;28;20053;-85
2021/01/25 09:50:20;;;;;;;9.18;6.35;;;;;;;;;;5085658;28;20032;-84
2021/01/25 09:52:47;;;;;;;8.20;6.53;;;;;;;;;;5101471;28;20032;-82
2021/01/25 09:55:15;;;;;;;8.15;6.35;;;;;;;;;;5096040;28;20011;-84
2021/01/25 09:57:42;;;;;;;10.38;7.30;;;;;;;;;;5100619;28;20031;-84
2021/01/25 10:00:09;;;;;;;6.85;6.13;;;;;;;;;;5083714;28;20024;-85
2021/01/25 10:02:36;;;;;;;6.65;5.82;;;;;;;;;;5102003;28;20071;-85
2021/01/25 10:05:02;;;;;;;9.20;6.07;;;;;;;;;;5073774;28;20476;-83
2021/01/25 10:07:29;;;;;;;7.72;6.07;;;;;;;;;;5060798;28;20038;-84
2021/01/25 10:09:55;;;;;;;7.90;6.88;;;;;;;;;;5071870;28;20399;-86
2021/01/25 10:12:22;;;;;;;8.95;5.97;;;;;;;;;;5089601;28;20065;-84
2021/01/25 10:14:49;;;;;;;10.73;6.15;;;;;;;;;;5098557;28;20347;-85
2021/01/25 10:17:16;;;;;;;7.63;5.95;;;;;;;;;;5088457;28;20164;-84
2021/01/25 10:19:42;;;;;;;8.52;5.93;;;;;;;;;;5088740;28;20067;-86
2021/01/25 10:22:08;;;;;;;7.57;5.75;;;;;;;;;;5076863;28;20035;-85
2021/01/25 10:24:34;;;;;;;8.80;5.35;;;;;;;;;;5079268;28;20115;-85
2021/01/25 10:27:01;;;;;;;6.07;5.13;;;;;;;;;;5090961;28;20351;-84
2021/01/25 10:29:27;;;;;;;6.82;5.40;;;;;;;;;;5082308;28;20023;-84
2021/01/25 10:31:53;;;;;;;8.40;5.50;;;;;;;;;;5078689;28;20032;-84
2021/01/25 10:34:19;;;;;;;6.97;5.43;;;;;;;;;;5094253;28;20108;-85
2021/01/25 10:36:45;;;;;;;5.80;4.35;;;;;;;;;;5091856;28;20031;-84
2021/01/25 10:39:11;;;;;;;6.70;4.90;;;;;;;;;;5100169;28;20188;-85
2021/01/25 10:41:37;;;;;;;5.22;4.30;;;;;;;;;;5107961;28;20021;-85
2021/01/25 10:44:04;;;;;;;7.63;5.60;;;;;;;;;;5100095;28;20096;-84
2021/01/25 10:46:30;;;;;;;6.47;4.45;;;;;;;;;;5077313;28;20031;-86
2021/01/25 10:48:56;;;;;;;6.70;4.47;;;;;;;;;;5108348;28;20347;-84
2021/01/25 10:51:22;;;;;;;7.85;4.38;;;;;;;;;;5086023;28;20063;-83
2021/01/25 10:53:48;;;;;;;5.43;4.30;;;;;;;;;;5097369;28;20062;-84
2021/01/25 10:56:14;;;;;;;5.22;4.40;;;;;;;;;;5097149;28;20031;-84
2021/01/25 10:58:40;;;;;;;6.53;4.18;;;;;;;;;;5083816;28;20032;-84
2021/01/25 11:01:07;;;;;;;5.47;4.70;;;;;;;;;;5039530;28;20125;-83
2021/01/25 11:03:36;;;;;;;5.03;3.95;;;;;;;;;;5054404;28;20035;-85
2021/01/25 11:06:02;;;;;;;5.47;4.05;;;;;;;;;;5079903;28;20031;-84
2021/01/25 11:08:28;;;;;;;8.85;4.57;;;;;;;;;;5089823;28;20135;-85
2021/01/25 11:10:55;;;;;;;6.43;4.53;;;;;;;;;;5086219;28;20024;-87
2021/01/25 11:13:21;;;;;;;6.72;4.63;;;;;;;;;;5083997;28;20035;-85
2021/01/25 11:15:47;;;;;;;5.57;4.63;;;;;;;;;;5076389;28;20044;-84
2021/01/25 11:18:13;;;;;;;6.25;3.90;;;;;;;;;;5092953;28;20102;-82
2021/01/25 11:20:39;;;;;;;6.65;3.85;;;;;;;;;;5092076;28;20027;-83
2021/01/25 11:23:06;;;;;;;7.10;4.53;;;;;;;;;;5082378;28;20039;-83
2021/01/25 11:25:32;;;;;;;4.70;3.92;;;;;;;;;;5084402;28;20031;-84
2021/01/25 11:27:58;;;;;;;6.65;4.50;;;;;;;;;;5082201;28;20059;-83
2021/01/25 11:30:24;;;;;;;4.72;4.22;;;;;;;;;;5093196;28;20028;-82
2021/01/25 11:32:50;;;;;;;8.18;5.80;;;;;;;;;;5074219;28;20048;-83
2021/01/25 11:35:16;;;;;;;6.15;5.18;;;;;;;;;;5077197;28;20338;-82
2021/01/25 11:37:42;;;;;;;6.80;5.53;;;;;;;;;;5090506;28;20032;-87
2021/01/25 11:40:09;;;;;;;5.93;4.63;;;;;;;;;;5086059;28;20024;-84
2021/01/25 11:42:35;;;;;;;6.07;4.82;;;;;;;;;;5077723;28;20021;-84
2021/01/25 11:45:02;;;;;;;13.65;5.03;;;;;;;;;;5101367;28;20052;-81
2021/01/25 11:47:28;;;;;;;6.60;4.88;;;;;;;;;;5089247;28;20078;-85
2021/01/25 11:49:54;;;;;;;8.48;5.35;;;;;;;;;;5087701;28;20119;-83
2021/01/25 11:52:21;;;;;;;7.53;5.53;;;;;;;;;;5084364;28;20035;-84
2021/01/25 11:54:47;;;;;;;6.90;5.22;;;;;;;;;;5090930;28;20023;-84
2021/01/25 11:57:13;;;;;;;8.65;5.00;;;;;;;;;;5091473;28;20089;-84
2021/01/25 11:59:39;;;;;;;6.32;4.97;;;;;;;;;;5098106;28;20054;-84
2021/01/25 12:02:05;;;;;;;8.35;5.72;;;;;;;;;;5084844;28;20036;-84
2021/01/25 12:04:32;;;;;;;7.07;5.43;;;;;;;;;;5089965;28;20075;-85
2021/01/25 12:06:58;;;;;;;7.72;4.78;;;;;;;;;;5089898;28;20028;-82
2021/01/25 12:09:27;;;;;;;8.15;5.15;;;;;;;;;;5091292;28;20104;-83
2021/01/25 12:11:53;;;;;;;5.53;5.03;;;;;;;;;;5099750;28;20113;-83
2021/01/25 12:14:19;;;;;;;8.35;5.35;;;;;;;;;;5087884;28;20123;-82
2021/01/25 12:16:45;;;;;;;6.20;5.05;;;;;;;;;;5104937;28;20023;-83
2021/01/25 12:19:11;;;;;;;7.18;5.70;;;;;;;;;;5094827;28;20032;-84
2021/01/25 12:21:41;;;;;;;9.18;6.88;;;;;;;;;;5090167;28;20050;-85
2021/01/25 12:24:08;;;;;;;7.20;6.00;;;;;;;;;;5084950;28;20023;-84
2021/01/25 12:26:35;;;;;;;10.77;6.22;;;;;;;;;;5090486;28;20110;-85
2021/01/25 12:29:01;;;;;;;9.00;5.55;;;;;;;;;;5096364;28;20020;-84
2021/01/25 12:31:27;;;;;;;6.65;5.88;;;;;;;;;;5081463;28;20023;-85
2021/01/25 12:33:54;;;;;;;9.23;5.90;;;;;;;;;;5089649;28;20028;-85
2021/01/25 12:36:20;;;;;;;10.75;5.95;;;;;;;;;;5081805;28;20016;-86
2021/01/25 12:38:46;;;;;;;9.98;5.80;;;;;;;;;;5079031;28;20024;-82
2021/01/25 12:41:12;;;;;;;9.10;5.75;;;;;;;;;;5079160;28;20024;-82
2021/01/25 12:43:38;;;;;;;8.02;5.45;;;;;;;;;;5081708;28;20341;-83
2021/01/25 12:46:04;;;;;;;6.03;5.43;;;;;;;;;;5084337;28;20034;-83
2021/01/25 12:48:31;;;;;;;7.85;6.32;;;;;;;;;;5100359;28;20027;-82
2021/01/25 12:50:57;;;;;;;9.10;5.60;;;;;;;;;;5084410;28;20351;-83
2021/01/25 12:53:24;;;;;;;8.18;5.53;;;;;;;;;;5095246;28;20081;-83
2021/01/25 12:55:50;;;;;;;8.93;5.13;;;;;;;;;;5086346;28;21008;-84
2021/01/25 12:58:16;;;;;;;6.22;5.45;;;;;;;;;;5085603;28;20024;-84
2021/01/25 13:00:42;;;;;;;8.05;5.47;;;;;;;;;;5057286;28;20179;-85
2021/01/25 13:03:09;;;;;;;6.88;4.75;;;;;;;;;;5054059;28;20508;-84
2021/01/25 13:05:36;;;;;;;9.25;5.10;;;;;;;;;;5052351;28;20497;-85
2021/01/25 13:08:05;;;;;;;5.30;4.28;;;;;;;;;;5059984;28;20150;-83
2021/01/25 13:10:32;;;;;;;6.88;4.75;;;;;;;;;;5076835;28;20451;-85
2021/01/25 13:12:58;;;;;;;5.68;4.80;;;;;;;;;;5086251;28;20036;-85
2021/01/25 13:15:25;;;;;;;6.00;4.88;;;;;;;;;;5097347;28;20028;-83
2021/01/25 13:17:55;;;;;;;10.73;5.70;;;;;;;;;;5085053;28;20043;-84
2021/01/25 13:20:21;;;;;;;;;;;;;;;;;;5086802;28;20089;-84
2021/01/25 13:22:47;;;;;;;7.57;4.10;;;;;;;;;;5086383;28;19919;-86
2021/01/25 13:25:13;;;;;;;7.65;4.95;;;;;;;;;;5088710;28;20024;-85
2021/01/25 13:27:40;;;;;;;4.88;4.22;;;;;;;;;;5094417;28;20031;-83
2021/01/25 13:30:07;;;;;;;9.20;4.85;;;;;;;;;;5087592;28;20038;-85
2021/01/25 13:32:36;;;;;;;7.13;4.35;;;;;;;;;;5081191;28;20036;-85
2021/01/25 13:35:02;;;;;;;7.90;4.22;;;;;;;;;;5076026;28;20054;-89
2021/01/25 13:37:28;;;;;;;7.18;4.55;;;;;;;;;;5005498;28;20086;-85
2021/01/25 13:39:54;;;;;;;9.75;4.60;;;;;;;;;;5075572;28;20027;-84
2021/01/25 13:42:20;;;;;;;6.75;4.35;;;;;;;;;;5080755;28;20030;-85
2021/01/25 13:44:46;;;;;;;6.97;3.90;;;;;;;;;;5054331;28;20426;-84
2021/01/25 13:47:12;;;;;;;7.07;3.85;;;;;;;;;;5065752;28;20032;-84
2021/01/25 13:49:38;;;;;;;5.28;3.55;;;;;;;;;;5101406;28;20034;-84
2021/01/25 13:52:04;;;;;;;7.47;3.70;;;;;;;;;;5094779;28;20039;-85
2021/01/25 13:54:31;;;;;;;5.47;3.75;;;;;;;;;;5081790;28;20047;-84
2021/01/25 13:56:57;;;;;;;5.63;3.58;;;;;;;;;;5087453;28;20139;-87
2021/01/25 13:59:23;;;;;;;4.53;3.83;;;;;;;;;;5082051;28;20032;-84
2021/01/25 14:01:49;;;;;;;4.75;3.33;;;;;;;;;;5085224;28;20030;-85
2021/01/25 14:04:16;;;;;;;3.55;3.08;;;;;;;;;;5083296;28;20032;-83
2021/01/25 14:06:42;;;;;;;6.88;3.10;;;;;;;;;;5099580;28;20206;-84
2021/01/25 14:09:08;;;;;;;4.78;3.60;;;;;;;;;;5094409;28;20027;-84
2021/01/25 14:11:34;;;;;;;7.25;3.35;;;;;;;;;;5096617;28;20032;-84
2021/01/25 14:14:00;;;;;;;4.95;3.03;;;;;;;;;;5080809;28;20043;-82
2021/01/25 14:16:26;;;;;;;5.53;3.55;;;;;;;;;;5095327;28;20020;-84
2021/01/25 14:18:52;;;;;;;4.47;3.13;;;;;;;;;;5080436;28;20405;-85
2021/01/25 14:21:19;;;;;;;6.13;3.63;;;;;;;;;;5080787;28;20063;-83
2021/01/25 14:23:45;;;;;;;8.02;4.30;;;;;;;;;;5079415;28;20029;-83
2021/01/25 14:26:11;;;;;;;7.57;3.22;;;;;;;;;;5090944;28;20028;-84
2021/01/25 14:28:37;;;;;;;4.35;3.10;;;;;;;;;;5078641;28;20091;-84
2021/01/25 14:31:04;;;;;;;4.47;3.75;;;;;;;;;;5085134;28;20139;-83
2021/01/25 14:33:30;;;;;;;5.90;2.60;;;;;;;;;;5089017;28;20127;-83
2021/01/25 14:35:56;;;;;;;5.10;2.90;;;;;;;;;;5105337;28;20121;-83
2021/01/25 14:38:22;;;;;;;3.75;2.53;;;;;;;;;;5086638;28;20070;-84
2021/01/25 14:40:49;;;;;;;3.20;2.90;;;;;;;;;;5103892;28;20067;-84